KEGV

Eagle River Union Airport

Eagle River, Wisconsin, USA
METAR KEGV 171415Z AUTO 32004KT 10SM OVC016 M07/M10 A3015 RMK AO2 T10681098
Observed Flight Rules
Dec-17 @ 14:15 UTC (14 minutes ago) Marginal Visual Flight Rules
Wind Visibility Clouds
320° at 4 knots 10 miles
  • Overcast at 1,600' AGL
Temperatures Readings
Current -7°C / 19°F
Dewpoint -10°C / 14°F
Humidity 79%
Altimeter 30.15" Hg
Pressure 1021 hPa
Elevation 500
METAR KEGV 171415Z AUTO 32004KT 10SM OVC016 M07/M10 A3015 RMK AO2 T10681098
Observed Flight Rules
Dec-17 @ 14:15 UTC
(14 minutes ago)
MVFR
Wind Visibility
320° at 4 knots 10 miles
Clouds
  • Overcast at 1,600' AGL
Temperature Dewpoint
-7°C / 19°F -10°C / 14°F
Humidity Altimeter Pressure
79% 30.15" Hg 1021 hPa